createdAt,value
2023-01-19T00:01:44.568Z,46.50
2023-01-19T00:04:12.974Z,55.70
2023-01-19T00:06:41.291Z,57.70
2023-01-19T00:09:09.663Z,54.90
2023-01-19T00:11:38.399Z,54.20
2023-01-19T00:14:06.749Z,54.50
2023-01-19T00:16:35.163Z,59.50
2023-01-19T00:19:03.790Z,59.20
2023-01-19T00:21:32.165Z,56.70
2023-01-19T00:24:00.817Z,62.00
2023-01-19T00:26:29.127Z,58.70
2023-01-19T00:28:57.664Z,59.20
2023-01-19T00:31:26.049Z,58.50
2023-01-19T00:33:54.341Z,60.30
2023-01-19T00:36:22.655Z,58.70
2023-01-19T00:38:51.001Z,63.70
2023-01-19T00:41:19.488Z,64.60
2023-01-19T00:43:47.800Z,67.60
2023-01-19T00:46:16.067Z,70.90
2023-01-19T00:48:44.937Z,67.60
2023-01-19T00:51:13.233Z,64.40
2023-01-19T00:53:41.584Z,70.40
2023-01-19T00:56:09.907Z,63.50
2023-01-19T00:58:38.414Z,66.30
2023-01-19T01:01:06.790Z,67.70
2023-01-19T01:03:35.148Z,63.50
2023-01-19T01:06:03.914Z,71.70
2023-01-19T01:08:32.624Z,67.50
2023-01-19T01:11:01.297Z,67.70
2023-01-19T01:13:29.984Z,64.90
2023-01-19T01:15:58.587Z,71.70
2023-01-19T01:18:27.046Z,60.30
2023-01-19T01:21:03.301Z,61.00
2023-01-19T01:23:32.525Z,56.50
2023-01-19T01:26:01.113Z,58.80
2023-01-19T01:28:29.438Z,54.80
2023-01-19T01:30:57.853Z,58.00
2023-01-19T01:33:41.092Z,56.40
2023-01-19T01:36:12.089Z,54.70
2023-01-19T01:38:41.715Z,58.10
2023-01-19T01:41:10.959Z,53.50
2023-01-19T01:43:58.436Z,53.60
2023-01-19T01:46:29.958Z,52.60
2023-01-19T01:49:15.678Z,61.30
2023-01-19T01:51:50.916Z,59.40
2023-01-19T01:54:30.092Z,53.10
2023-01-19T01:57:05.409Z,63.60
2023-01-19T01:59:41.312Z,58.90
2023-01-19T02:02:44.008Z,58.20
2023-01-19T02:05:30.072Z,60.30
2023-01-19T02:11:15.265Z,53.20
2023-01-19T02:13:45.104Z,54.30
2023-01-19T02:16:16.390Z,45.60
2023-01-19T02:18:45.394Z,37.70
2023-01-19T02:21:31.532Z,32.20
2023-01-19T02:24:01.617Z,25.70
2023-01-19T02:26:38.900Z,21.40
2023-01-19T02:29:13.129Z,19.20
2023-01-19T02:31:42.031Z,20.30
2023-01-19T02:34:15.391Z,14.30
2023-01-19T02:37:00.170Z,14.90
2023-01-19T02:39:36.838Z,13.50
2023-01-19T02:42:29.557Z,11.20
2023-01-19T02:44:58.263Z,8.90
2023-01-19T02:47:26.708Z,8.70
2023-01-19T02:49:58.067Z,7.40
2023-01-19T02:52:28.008Z,8.60
2023-01-19T02:55:19.815Z,7.70
2023-01-19T02:58:20.985Z,7.20
2023-01-19T03:01:08.588Z,6.30
2023-01-19T03:03:54.581Z,7.00
2023-01-19T03:09:43.591Z,6.80
2023-01-19T03:12:19.972Z,5.80
2023-01-19T03:14:50.021Z,6.50
2023-01-19T03:17:19.191Z,6.40
2023-01-19T03:19:50.609Z,7.60
2023-01-19T03:22:27.139Z,6.60
2023-01-19T03:25:00.490Z,6.40
2023-01-19T03:27:33.946Z,6.10
2023-01-19T03:30:15.427Z,4.80
2023-01-19T03:32:52.067Z,6.10
2023-01-19T03:35:24.112Z,5.80
2023-01-19T03:37:58.151Z,6.60
2023-01-19T03:40:30.631Z,5.70
2023-01-19T03:43:02.494Z,5.40
2023-01-19T03:45:33.972Z,5.20
2023-01-19T03:48:03.060Z,6.40
2023-01-19T03:50:31.993Z,8.00
2023-01-19T03:53:13.423Z,5.10
2023-01-19T03:55:46.565Z,6.00
2023-01-19T03:58:14.827Z,5.70
2023-01-19T04:00:43.319Z,6.20
2023-01-19T04:03:15.707Z,5.80
2023-01-19T04:05:44.815Z,6.70
2023-01-19T04:08:13.238Z,6.50
2023-01-19T04:10:41.590Z,6.60
2023-01-19T04:13:09.941Z,9.10
2023-01-19T04:15:38.841Z,9.20
2023-01-19T04:18:07.213Z,7.90
2023-01-19T04:20:35.557Z,7.90
2023-01-19T04:23:04.253Z,6.80
2023-01-19T04:25:33.280Z,8.00
2023-01-19T04:28:01.594Z,9.40
2023-01-19T04:30:29.941Z,8.80
2023-01-19T04:32:59.819Z,8.00
2023-01-19T04:35:28.741Z,7.90
2023-01-19T04:37:57.110Z,8.30
2023-01-19T04:40:25.539Z,7.90
2023-01-19T04:42:54.403Z,8.10
2023-01-19T04:45:22.862Z,9.10
2023-01-19T04:47:51.986Z,11.60
2023-01-19T04:50:20.455Z,9.80
2023-01-19T04:52:49.064Z,11.50
2023-01-19T04:55:18.463Z,10.20
2023-01-19T04:57:46.807Z,13.10
2023-01-19T05:00:16.233Z,12.90
2023-01-19T05:02:45.391Z,11.80
2023-01-19T05:05:14.134Z,12.70
2023-01-19T05:07:43.582Z,13.20
2023-01-19T05:10:12.532Z,12.50
2023-01-19T05:12:42.213Z,12.40
2023-01-19T05:15:11.233Z,14.90
2023-01-19T05:17:40.091Z,12.80
2023-01-19T05:20:15.931Z,16.60
2023-01-19T05:22:52.845Z,16.10
2023-01-19T05:25:21.187Z,17.20
2023-01-19T05:27:49.511Z,16.20
2023-01-19T05:30:18.224Z,14.80
2023-01-19T05:32:46.754Z,13.70
2023-01-19T05:35:18.218Z,21.20
2023-01-19T05:37:47.174Z,19.40
2023-01-19T05:40:15.902Z,22.60
2023-01-19T05:42:44.256Z,17.30
2023-01-19T05:45:12.890Z,21.00
2023-01-19T05:47:41.320Z,22.80
2023-01-19T05:50:10.486Z,29.00
2023-01-19T05:52:38.831Z,21.80
2023-01-19T05:55:07.930Z,16.30
2023-01-19T05:57:36.258Z,17.10
2023-01-19T06:00:05.863Z,22.80
2023-01-19T06:02:34.178Z,32.50
2023-01-19T06:05:02.605Z,19.90
2023-01-19T06:07:31.820Z,20.40
2023-01-19T06:10:00.256Z,15.50
2023-01-19T06:12:28.599Z,14.90
2023-01-19T06:14:56.895Z,14.40
2023-01-19T06:17:25.215Z,13.50
2023-01-19T06:19:53.504Z,12.60
2023-01-19T06:22:21.839Z,15.80
2023-01-19T06:24:50.481Z,10.10
2023-01-19T06:27:18.869Z,11.10
2023-01-19T06:29:47.279Z,10.40
2023-01-19T06:32:15.724Z,13.00
2023-01-19T06:34:44.111Z,14.80
2023-01-19T06:37:12.559Z,12.30
2023-01-19T06:39:41.160Z,8.90
2023-01-19T06:42:09.482Z,12.60
2023-01-19T06:44:37.806Z,13.10
2023-01-19T06:47:14.963Z,11.50
2023-01-19T06:49:44.500Z,11.10
2023-01-19T06:52:17.503Z,13.50
2023-01-19T06:54:46.494Z,12.80
2023-01-19T06:57:15.300Z,11.50
2023-01-19T06:59:43.679Z,15.50
2023-01-19T07:02:26.639Z,25.80
2023-01-19T07:04:56.980Z,18.80
2023-01-19T07:07:25.978Z,11.20
2023-01-19T07:09:54.410Z,13.40
2023-01-19T07:12:23.386Z,14.40
2023-01-19T07:14:52.759Z,16.00
2023-01-19T07:17:21.116Z,17.50
2023-01-19T07:19:49.574Z,19.70
2023-01-19T07:22:18.467Z,13.30
2023-01-19T07:24:47.423Z,10.10
2023-01-19T07:27:16.463Z,11.30
2023-01-19T07:29:44.862Z,8.70
2023-01-19T07:32:13.316Z,11.20
2023-01-19T07:34:41.610Z,8.90
2023-01-19T07:37:10.020Z,12.30
2023-01-19T07:39:38.309Z,12.70
2023-01-19T07:42:07.101Z,11.00
2023-01-19T07:44:35.575Z,11.90
2023-01-19T07:47:07.532Z,12.70
2023-01-19T07:49:36.454Z,14.30
2023-01-19T07:52:05.094Z,10.20
2023-01-19T07:54:33.695Z,13.00
2023-01-19T07:57:02.054Z,11.40
2023-01-19T07:59:32.228Z,12.50
2023-01-19T08:02:00.811Z,13.70
2023-01-19T08:04:29.276Z,13.20
2023-01-19T08:06:58.189Z,12.10
2023-01-19T08:09:26.594Z,31.20
2023-01-19T08:11:54.972Z,28.00
2023-01-19T08:14:23.389Z,17.20
2023-01-19T08:16:51.749Z,12.90
2023-01-19T08:19:20.344Z,12.70
2023-01-19T08:21:48.809Z,11.40
2023-01-19T08:24:21.541Z,14.50
2023-01-19T08:26:50.283Z,16.60
2023-01-19T08:29:18.821Z,16.00
2023-01-19T08:31:47.524Z,19.30
2023-01-19T08:34:16.273Z,11.90
2023-01-19T08:36:44.637Z,10.30
2023-01-19T08:39:13.272Z,15.60
2023-01-19T08:41:41.688Z,12.50
2023-01-19T08:44:10.657Z,13.20
2023-01-19T08:46:39.062Z,17.00
2023-01-19T08:49:07.940Z,13.90
2023-01-19T08:51:36.481Z,14.30
2023-01-19T08:54:05.293Z,20.90
2023-01-19T08:56:33.597Z,25.40
2023-01-19T08:59:09.943Z,12.50
2023-01-19T09:01:39.271Z,14.10
2023-01-19T09:04:08.423Z,11.60
2023-01-19T09:06:36.891Z,17.20
2023-01-19T09:09:05.357Z,12.90
2023-01-19T09:11:34.982Z,10.30
2023-01-19T09:14:04.248Z,15.50
2023-01-19T09:16:32.653Z,14.80
2023-01-19T09:19:01.018Z,13.20
2023-01-19T09:21:29.402Z,16.60
2023-01-19T09:23:57.972Z,12.30
2023-01-19T09:26:27.080Z,14.00
2023-01-19T09:28:55.430Z,11.20
2023-01-19T09:31:24.274Z,13.70
2023-01-19T09:33:52.860Z,15.20
2023-01-19T09:36:21.177Z,13.70
2023-01-19T09:38:49.618Z,17.60
2023-01-19T09:41:22.183Z,14.80
2023-01-19T09:43:58.052Z,13.90
2023-01-19T09:46:42.340Z,10.00
2023-01-19T09:49:26.616Z,12.10
2023-01-19T09:51:55.117Z,11.90
2023-01-19T09:54:41.076Z,15.60
2023-01-19T09:57:14.736Z,13.50
2023-01-19T09:59:47.743Z,11.60
2023-01-19T10:02:44.537Z,14.00
2023-01-19T10:05:33.439Z,15.60
2023-01-19T10:08:31.871Z,10.70
2023-01-19T10:11:00.483Z,11.30
2023-01-19T10:13:49.087Z,14.00
2023-01-19T10:16:52.766Z,10.10
2023-01-19T10:19:27.773Z,11.30
2023-01-19T10:22:00.403Z,13.10
2023-01-19T10:24:44.079Z,16.00
2023-01-19T10:27:18.948Z,11.20
2023-01-19T10:29:47.380Z,11.90
2023-01-19T10:32:26.218Z,14.00
2023-01-19T10:34:55.701Z,10.30
2023-01-19T10:37:38.024Z,8.40
2023-01-19T10:40:09.301Z,12.50
2023-01-19T10:42:42.041Z,11.60
2023-01-19T10:45:30.328Z,16.10
2023-01-19T10:48:07.483Z,11.90
2023-01-19T10:50:39.895Z,11.20
2023-01-19T10:53:21.841Z,10.20
2023-01-19T10:56:22.493Z,15.70
2023-01-19T10:58:51.618Z,9.00
2023-01-19T11:01:27.044Z,9.30
2023-01-19T11:04:00.086Z,10.30
2023-01-19T11:06:31.230Z,9.20
2023-01-19T11:09:28.757Z,9.30
2023-01-19T11:11:57.040Z,8.70
2023-01-19T11:14:26.496Z,8.90
2023-01-19T11:16:58.082Z,11.20
2023-01-19T11:19:30.344Z,7.10
2023-01-19T11:22:22.772Z,8.90
2023-01-19T11:24:51.293Z,8.50
2023-01-19T11:27:21.433Z,10.40
2023-01-19T11:30:00.808Z,9.10
2023-01-19T11:32:29.203Z,10.40
2023-01-19T11:34:58.182Z,10.20
2023-01-19T11:37:31.536Z,10.30
2023-01-19T11:40:02.935Z,12.20
2023-01-19T11:42:34.415Z,8.90
2023-01-19T11:45:17.651Z,8.80
2023-01-19T11:47:49.760Z,17.60
2023-01-19T11:50:43.798Z,7.90
2023-01-19T11:53:25.454Z,7.40
2023-01-19T11:55:58.871Z,8.90
2023-01-19T11:58:27.862Z,7.70
2023-01-19T12:01:06.652Z,7.60
2023-01-19T12:03:49.250Z,11.80
2023-01-19T12:06:24.467Z,9.10
2023-01-19T12:09:12.914Z,12.50
2023-01-19T12:11:48.342Z,8.60
2023-01-19T12:16:55.586Z,6.20
2023-01-19T12:19:35.835Z,8.80
2023-01-19T12:22:05.147Z,7.90
2023-01-19T12:24:44.645Z,11.30
2023-01-19T12:27:37.723Z,11.50
2023-01-19T12:30:18.732Z,11.20
2023-01-19T12:32:47.720Z,13.70
2023-01-19T12:35:57.760Z,16.60
2023-01-19T12:38:44.256Z,6.70
2023-01-19T12:41:40.535Z,49.10
2023-01-19T12:47:05.285Z,8.20
2023-01-19T12:49:45.960Z,44.70
2023-01-19T12:52:31.440Z,8.80
2023-01-19T12:55:15.563Z,19.40
2023-01-19T12:58:00.733Z,7.90
2023-01-19T13:00:51.310Z,8.10
2023-01-19T13:03:19.672Z,51.10
2023-01-19T13:05:54.032Z,48.20
2023-01-19T13:08:59.843Z,9.40
2023-01-19T13:11:33.344Z,10.80
2023-01-19T13:14:02.642Z,9.30
2023-01-19T13:16:30.994Z,8.30
2023-01-19T13:19:17.980Z,10.20
2023-01-19T13:21:49.517Z,7.40
2023-01-19T13:24:24.653Z,6.40
2023-01-19T13:26:57.823Z,9.90
2023-01-19T13:29:34.073Z,10.60
2023-01-19T13:32:12.745Z,9.70
2023-01-19T13:34:46.921Z,9.60
2023-01-19T13:37:19.935Z,7.80
2023-01-19T13:39:52.832Z,12.50
2023-01-19T13:42:36.551Z,7.00
2023-01-19T13:45:29.805Z,22.30
2023-01-19T13:48:01.473Z,10.50
2023-01-19T13:50:33.992Z,14.60
2023-01-19T13:53:04.625Z,11.50
2023-01-19T13:55:33.051Z,9.80
2023-01-19T13:58:01.553Z,7.20
2023-01-19T14:00:31.029Z,18.60
2023-01-19T14:03:05.389Z,11.10
2023-01-19T14:05:37.085Z,7.40
2023-01-19T14:08:09.222Z,9.60
2023-01-19T14:11:05.205Z,9.70
2023-01-19T14:13:41.592Z,9.70
2023-01-19T14:16:17.347Z,7.50
2023-01-19T14:18:45.743Z,7.10
2023-01-19T14:21:15.998Z,11.60
2023-01-19T14:24:07.929Z,10.20
2023-01-19T14:26:52.036Z,10.90
2023-01-19T14:29:35.669Z,12.60
2023-01-19T14:32:09.798Z,12.50
2023-01-19T14:34:53.778Z,14.80
2023-01-19T14:37:35.085Z,10.50
2023-01-19T14:40:13.090Z,15.00
2023-01-19T14:43:06.285Z,15.70
2023-01-19T14:45:40.127Z,12.60
2023-01-19T14:48:21.746Z,25.80
2023-01-19T14:51:02.822Z,28.60
2023-01-19T14:53:37.247Z,26.20
2023-01-19T14:56:07.255Z,13.10
2023-01-19T14:58:36.086Z,25.90
2023-01-19T15:01:04.778Z,33.60
2023-01-19T15:03:48.746Z,31.10
2023-01-19T15:06:20.652Z,14.20
2023-01-19T15:08:50.454Z,18.90
2023-01-19T15:11:26.475Z,22.20
2023-01-19T15:13:55.557Z,13.30
2023-01-19T15:16:26.047Z,36.90
2023-01-19T15:18:55.264Z,43.10
2023-01-19T15:21:26.359Z,44.50
2023-01-19T15:23:55.800Z,45.10
2023-01-19T15:26:26.502Z,28.70
2023-01-19T15:28:56.529Z,21.50
2023-01-19T15:31:26.351Z,21.90
2023-01-19T15:33:54.952Z,22.90
2023-01-19T15:36:24.405Z,23.10
2023-01-19T15:41:30.150Z,30.20
2023-01-19T15:43:59.079Z,36.60
2023-01-19T15:46:27.518Z,54.80
2023-01-19T15:48:56.014Z,105.50
2023-01-19T15:51:26.310Z,107.00
2023-01-19T15:53:55.776Z,64.70
2023-01-19T15:56:31.068Z,65.30
2023-01-19T15:58:59.885Z,40.20
2023-01-19T16:01:33.943Z,48.00
2023-01-19T16:04:07.185Z,42.90
2023-01-19T16:06:35.664Z,49.30
2023-01-19T16:09:04.647Z,58.00
2023-01-19T16:11:35.533Z,43.80
2023-01-19T16:14:03.951Z,43.60
2023-01-19T16:16:33.051Z,49.00
2023-01-19T16:19:01.698Z,32.00
2023-01-19T16:21:30.032Z,27.90
2023-01-19T16:23:58.422Z,22.80
2023-01-19T16:26:35.192Z,21.80
2023-01-19T16:29:10.899Z,19.70
2023-01-19T16:31:42.452Z,22.90
2023-01-19T16:34:11.225Z,29.40
2023-01-19T16:36:41.647Z,33.10
2023-01-19T16:39:15.055Z,27.30
2023-01-19T16:41:46.496Z,34.20
2023-01-19T16:44:17.014Z,53.80
2023-01-19T16:46:46.969Z,68.30
2023-01-19T16:49:21.421Z,66.10
2023-01-19T16:51:50.801Z,46.40
2023-01-19T16:54:27.395Z,44.50
2023-01-19T16:56:57.307Z,48.20
2023-01-19T16:59:27.123Z,52.30
2023-01-19T17:01:56.103Z,88.90
2023-01-19T17:04:24.633Z,89.90
2023-01-19T17:06:54.895Z,74.80
2023-01-19T17:09:23.561Z,74.10
2023-01-19T17:11:51.863Z,63.30
2023-01-19T17:14:20.865Z,52.40
2023-01-19T17:16:49.473Z,47.90
2023-01-19T17:19:20.096Z,49.90
2023-01-19T17:21:49.353Z,54.90
2023-01-19T17:24:18.001Z,60.80
2023-01-19T17:26:48.633Z,61.30
2023-01-19T17:29:17.983Z,46.30
2023-01-19T17:31:46.837Z,49.20
2023-01-19T17:34:15.230Z,50.70
2023-01-19T17:36:43.721Z,51.50
2023-01-19T17:39:14.885Z,51.40
2023-01-19T17:41:43.553Z,55.00
2023-01-19T17:44:12.178Z,56.10
2023-01-19T17:46:40.779Z,59.10
2023-01-19T17:49:09.189Z,57.80
2023-01-19T17:51:37.595Z,52.20
2023-01-19T17:54:06.147Z,35.40
2023-01-19T17:56:37.602Z,34.20
2023-01-19T17:59:07.958Z,32.80
2023-01-19T18:01:40.869Z,34.20
2023-01-19T18:04:09.599Z,58.70
2023-01-19T18:06:38.452Z,82.90
2023-01-19T18:09:07.630Z,95.40
2023-01-19T18:11:36.387Z,78.90
2023-01-19T18:14:06.028Z,47.80
2023-01-19T18:16:34.583Z,41.40
2023-01-19T18:19:03.261Z,46.70
2023-01-19T18:21:31.756Z,44.50
2023-01-19T18:24:03.849Z,42.90
2023-01-19T18:26:35.212Z,50.10
2023-01-19T18:29:05.005Z,45.30
2023-01-19T18:31:33.664Z,60.70
2023-01-19T18:34:02.076Z,58.00
2023-01-19T18:36:32.612Z,94.90
2023-01-19T18:39:01.637Z,106.40
2023-01-19T18:41:30.629Z,120.60
2023-01-19T18:43:59.744Z,91.20
2023-01-19T18:46:28.440Z,84.70
2023-01-19T18:48:56.886Z,78.60
2023-01-19T18:51:25.475Z,39.40
2023-01-19T18:53:54.088Z,30.40
2023-01-19T18:56:23.590Z,31.80
2023-01-19T18:58:54.782Z,24.20
2023-01-19T19:01:32.415Z,24.20
2023-01-19T19:04:08.703Z,27.90
2023-01-19T19:06:37.109Z,24.60
2023-01-19T19:09:06.616Z,23.40
2023-01-19T19:11:35.711Z,33.70
2023-01-19T19:14:05.404Z,28.10
2023-01-19T19:16:36.930Z,35.10
2023-01-19T19:19:08.320Z,37.60
2023-01-19T19:21:36.641Z,35.10
2023-01-19T19:24:05.669Z,37.60
2023-01-19T19:26:36.948Z,40.70
2023-01-19T19:29:05.927Z,36.20
2023-01-19T19:31:35.143Z,80.20
2023-01-19T19:34:03.563Z,38.70
2023-01-19T19:36:33.994Z,51.10
2023-01-19T19:39:02.479Z,51.30
2023-01-19T19:41:32.360Z,47.10
2023-01-19T19:44:00.702Z,52.10
2023-01-19T19:46:29.132Z,58.70
2023-01-19T19:48:57.490Z,50.20
2023-01-19T19:51:28.533Z,54.40
2023-01-19T19:54:00.027Z,51.90
2023-01-19T19:56:31.430Z,45.00
2023-01-19T19:59:00.769Z,48.90
2023-01-19T20:01:33.674Z,51.70
2023-01-19T20:04:12.225Z,49.90
2023-01-19T20:06:44.721Z,48.10
2023-01-19T20:09:14.249Z,47.70
2023-01-19T20:11:45.445Z,49.90
2023-01-19T20:14:16.171Z,44.60
2023-01-19T20:16:44.662Z,49.70
2023-01-19T20:19:13.053Z,57.40
2023-01-19T20:21:42.551Z,41.90
2023-01-19T20:24:17.743Z,49.50
2023-01-19T20:26:52.830Z,45.50
2023-01-19T20:29:21.400Z,62.40
2023-01-19T20:31:54.851Z,60.30
2023-01-19T20:34:33.048Z,68.90
2023-01-19T20:37:07.008Z,68.80
2023-01-19T20:39:37.183Z,88.20
2023-01-19T20:42:09.684Z,71.30
2023-01-19T20:44:38.339Z,65.90
2023-01-19T20:47:08.397Z,59.50
2023-01-19T20:49:36.999Z,55.70
2023-01-19T20:52:05.764Z,45.60
2023-01-19T20:54:34.495Z,55.50
2023-01-19T20:57:03.261Z,54.50
2023-01-19T20:59:34.104Z,49.50
2023-01-19T21:02:03.285Z,57.70
2023-01-19T21:04:31.738Z,73.90
2023-01-19T21:07:00.160Z,68.60
2023-01-19T21:09:28.963Z,57.10
2023-01-19T21:11:57.689Z,50.30
2023-01-19T21:14:26.188Z,44.30
2023-01-19T21:16:58.300Z,52.00
2023-01-19T21:19:26.694Z,51.20
2023-01-19T21:21:57.820Z,47.80
2023-01-19T21:24:26.138Z,56.50
2023-01-19T21:26:54.473Z,55.50
2023-01-19T21:29:22.918Z,54.80
2023-01-19T21:31:51.364Z,51.10
2023-01-19T21:34:19.861Z,50.60
2023-01-19T21:36:48.320Z,51.30
2023-01-19T21:39:17.520Z,61.00
2023-01-19T21:41:45.987Z,61.40
2023-01-19T21:44:14.484Z,63.10
2023-01-19T21:46:43.461Z,62.20
2023-01-19T21:49:19.408Z,56.50
2023-01-19T21:51:50.532Z,57.80
2023-01-19T21:54:18.997Z,61.20
2023-01-19T21:56:47.367Z,66.20
2023-01-19T21:59:16.253Z,62.00
2023-01-19T22:01:45.977Z,70.70
2023-01-19T22:04:14.396Z,79.00
2023-01-19T22:06:42.969Z,66.40
2023-01-19T22:09:11.283Z,65.80
2023-01-19T22:11:39.615Z,68.90
2023-01-19T22:14:07.928Z,58.00
2023-01-19T22:16:36.329Z,64.90
2023-01-19T22:19:07.379Z,63.90
2023-01-19T22:21:35.923Z,58.40
2023-01-19T22:24:05.669Z,59.60
2023-01-19T22:26:34.698Z,58.30
2023-01-19T22:29:06.744Z,63.00
2023-01-19T22:31:35.205Z,54.50
2023-01-19T22:34:03.931Z,72.70
2023-01-19T22:36:35.815Z,74.20
2023-01-19T22:39:10.599Z,80.00
2023-01-19T22:41:42.499Z,68.70
2023-01-19T22:44:17.947Z,72.80
2023-01-19T22:49:18.065Z,63.50
2023-01-19T22:51:47.118Z,69.30
2023-01-19T22:54:15.510Z,62.80
2023-01-19T22:56:43.901Z,58.90
2023-01-19T22:59:12.255Z,64.30
2023-01-19T23:01:43.872Z,58.10
2023-01-19T23:04:15.751Z,62.50
2023-01-19T23:06:49.224Z,61.60
2023-01-19T23:09:18.783Z,64.20
2023-01-19T23:11:50.498Z,68.60
2023-01-19T23:14:22.075Z,65.10
2023-01-19T23:16:50.735Z,65.80
2023-01-19T23:19:19.535Z,54.40
2023-01-19T23:21:52.469Z,60.40
2023-01-19T23:24:21.011Z,60.70
2023-01-19T23:26:52.514Z,64.50
2023-01-19T23:29:20.979Z,71.70
2023-01-19T23:31:50.143Z,70.70
2023-01-19T23:34:18.524Z,74.90
2023-01-19T23:36:46.917Z,89.20
2023-01-19T23:39:21.538Z,85.80
2023-01-19T23:41:50.450Z,68.10
2023-01-19T23:44:19.178Z,62.60
2023-01-19T23:46:47.583Z,57.50
2023-01-19T23:49:15.984Z,52.60
2023-01-19T23:51:44.321Z,57.90
2023-01-19T23:54:12.719Z,63.40
2023-01-19T23:56:42.664Z,63.90
2023-01-19T23:59:15.778Z,56.90
